createdAt,value
2023-08-30T00:01:49.103Z,87.12
2023-08-30T00:04:16.051Z,87.44
2023-08-30T00:06:43.466Z,87.79
2023-08-30T00:09:10.422Z,88.02
2023-08-30T00:11:37.596Z,87.90
2023-08-30T00:14:07.454Z,88.14
2023-08-30T00:16:35.140Z,88.19
2023-08-30T00:19:02.285Z,88.40
2023-08-30T00:21:29.851Z,88.76
2023-08-30T00:23:57.133Z,88.99
2023-08-30T00:26:24.695Z,89.00
2023-08-30T00:28:52.737Z,89.41
2023-08-30T00:31:20.093Z,89.51
2023-08-30T00:33:47.102Z,89.50
2023-08-30T00:36:14.404Z,89.30
2023-08-30T00:38:42.432Z,89.15
2023-08-30T00:41:10.457Z,89.19
2023-08-30T00:43:37.417Z,89.08
2023-08-30T00:46:04.781Z,89.29
2023-08-30T00:48:33.141Z,88.84
2023-08-30T00:51:00.246Z,88.74
2023-08-30T00:53:27.349Z,88.91
2023-08-30T00:55:54.339Z,88.72
2023-08-30T00:58:21.432Z,88.54
2023-08-30T01:00:49.392Z,88.41
2023-08-30T01:03:16.475Z,88.63
2023-08-30T01:05:43.896Z,88.55
2023-08-30T01:08:12.677Z,88.13
2023-08-30T01:11:05.005Z,88.07
2023-08-30T01:13:35.280Z,88.19
2023-08-30T01:16:05.594Z,88.26
2023-08-30T01:18:38.175Z,87.97
2023-08-30T01:21:06.950Z,88.00
2023-08-30T01:23:45.985Z,87.71
2023-08-30T01:26:17.303Z,87.98
2023-08-30T01:28:49.029Z,87.93
2023-08-30T01:31:16.527Z,88.04
2023-08-30T01:33:44.403Z,87.80
2023-08-30T01:36:11.537Z,87.86
2023-08-30T01:38:40.660Z,88.12
2023-08-30T01:41:08.799Z,87.87
2023-08-30T01:43:36.972Z,87.97
2023-08-30T01:46:05.801Z,88.38
2023-08-30T01:48:35.058Z,88.19
2023-08-30T01:51:03.790Z,88.19
2023-08-30T01:53:32.712Z,88.52
2023-08-30T01:56:00.958Z,88.28
2023-08-30T01:58:27.902Z,88.30
2023-08-30T02:00:54.967Z,88.25
2023-08-30T02:03:24.072Z,88.57
2023-08-30T02:06:15.987Z,88.23
2023-08-30T02:08:56.423Z,88.44
2023-08-30T02:11:28.756Z,88.54
2023-08-30T02:13:58.847Z,88.67
2023-08-30T02:16:28.114Z,88.38
2023-08-30T02:18:56.802Z,88.57
2023-08-30T02:21:24.006Z,88.56
2023-08-30T02:23:52.332Z,88.59
2023-08-30T02:26:20.717Z,88.29
2023-08-30T02:28:48.389Z,88.79
2023-08-30T02:31:15.659Z,88.38
2023-08-30T02:33:47.694Z,88.29
2023-08-30T02:36:14.666Z,88.35
2023-08-30T02:38:42.606Z,88.10
2023-08-30T02:41:11.527Z,88.30
2023-08-30T02:43:40.551Z,88.00
2023-08-30T02:46:10.144Z,88.15
2023-08-30T02:48:39.128Z,88.18
2023-08-30T02:51:09.476Z,88.38
2023-08-30T02:53:36.469Z,88.65
2023-08-30T02:56:03.610Z,88.45
2023-08-30T02:58:34.351Z,89.03
2023-08-30T03:01:04.242Z,88.99
2023-08-30T03:03:31.967Z,89.20
2023-08-30T03:05:59.360Z,89.15
2023-08-30T03:08:26.393Z,89.58
2023-08-30T03:10:53.523Z,89.64
2023-08-30T03:13:20.823Z,89.63
2023-08-30T03:15:52.169Z,89.94
2023-08-30T03:18:21.027Z,89.73
2023-08-30T03:20:48.885Z,89.79
2023-08-30T03:23:15.875Z,89.90
2023-08-30T03:25:42.857Z,89.85
2023-08-30T03:28:10.081Z,89.60
2023-08-30T03:30:37.485Z,89.79
2023-08-30T03:33:04.716Z,89.62
2023-08-30T03:35:35.367Z,89.58
2023-08-30T03:38:03.462Z,89.82
2023-08-30T03:40:31.496Z,89.43
2023-08-30T03:42:58.485Z,89.49
2023-08-30T03:45:25.647Z,89.66
2023-08-30T03:47:55.950Z,89.62
2023-08-30T03:50:23.887Z,89.15
2023-08-30T03:52:51.879Z,89.16
2023-08-30T03:55:19.243Z,88.87
2023-08-30T03:57:47.182Z,88.97
2023-08-30T04:00:15.765Z,89.05
2023-08-30T04:02:42.696Z,88.82
2023-08-30T04:05:10.504Z,89.01
2023-08-30T04:07:38.819Z,88.72
2023-08-30T04:10:08.452Z,89.03
2023-08-30T04:12:36.217Z,88.94
2023-08-30T04:15:11.471Z,89.07
2023-08-30T04:17:42.155Z,89.05
2023-08-30T04:20:09.323Z,88.98
2023-08-30T04:22:37.364Z,89.38
2023-08-30T04:25:06.390Z,89.38
2023-08-30T04:27:34.113Z,89.35
2023-08-30T04:30:01.187Z,89.00
2023-08-30T04:32:28.428Z,89.02
2023-08-30T04:34:58.482Z,89.23
2023-08-30T04:37:26.424Z,88.96
2023-08-30T04:39:53.487Z,89.02
2023-08-30T04:42:22.389Z,88.77
2023-08-30T04:44:49.858Z,88.57
2023-08-30T04:47:17.265Z,88.73
2023-08-30T04:49:44.917Z,88.63
2023-08-30T04:52:14.448Z,88.36
2023-08-30T04:54:43.031Z,88.19
2023-08-30T04:57:10.512Z,88.21
2023-08-30T04:59:37.568Z,88.55
2023-08-30T05:02:04.822Z,88.54
2023-08-30T05:04:34.744Z,88.43
2023-08-30T05:07:01.718Z,88.27
2023-08-30T05:09:29.184Z,88.04
2023-08-30T05:11:56.270Z,88.16
2023-08-30T05:14:23.362Z,88.16
2023-08-30T05:16:53.080Z,88.38
2023-08-30T05:19:20.578Z,87.98
2023-08-30T05:21:47.653Z,88.10
2023-08-30T05:24:14.807Z,87.88
2023-08-30T05:26:42.052Z,88.00
2023-08-30T05:29:09.117Z,87.71
2023-08-30T05:31:36.108Z,87.64
2023-08-30T05:34:22.216Z,87.51
2023-08-30T05:37:09.911Z,87.64
2023-08-30T05:39:55.823Z,87.68
2023-08-30T05:42:22.818Z,87.58
2023-08-30T05:44:50.012Z,87.45
2023-08-30T05:47:18.690Z,87.53
2023-08-30T05:49:46.966Z,87.25
2023-08-30T05:52:17.505Z,87.18
2023-08-30T05:54:44.430Z,87.37
2023-08-30T05:57:11.610Z,87.27
2023-08-30T05:59:38.570Z,87.45
2023-08-30T06:02:05.856Z,87.39
2023-08-30T06:04:33.059Z,87.54
2023-08-30T06:07:00.155Z,87.51
2023-08-30T06:09:27.146Z,87.75
2023-08-30T06:11:54.032Z,87.96
2023-08-30T06:14:21.307Z,87.63
2023-08-30T06:16:48.648Z,87.62
2023-08-30T06:19:15.758Z,87.72
2023-08-30T06:21:43.082Z,87.88
2023-08-30T06:24:10.144Z,87.97
2023-08-30T06:26:37.066Z,87.82
2023-08-30T06:29:05.426Z,87.98
2023-08-30T06:31:33.957Z,87.73
2023-08-30T06:34:01.203Z,87.46
2023-08-30T06:36:28.179Z,87.53
2023-08-30T06:38:56.269Z,87.54
2023-08-30T06:41:23.408Z,87.07
2023-08-30T06:43:50.390Z,87.38
2023-08-30T06:46:18.102Z,86.80
2023-08-30T06:48:46.320Z,86.73
2023-08-30T06:51:13.265Z,86.78
2023-08-30T06:53:40.265Z,86.66
2023-08-30T06:56:07.200Z,86.40
2023-08-30T06:58:37.020Z,86.16
2023-08-30T07:01:04.831Z,85.96
2023-08-30T07:03:35.476Z,85.88
2023-08-30T07:06:02.575Z,85.69
2023-08-30T07:08:30.754Z,85.54
2023-08-30T07:10:59.342Z,85.51
2023-08-30T07:13:26.280Z,84.98
2023-08-30T07:15:53.276Z,84.71
2023-08-30T07:18:20.289Z,84.50
2023-08-30T07:20:47.360Z,84.52
2023-08-30T07:23:15.159Z,84.37
2023-08-30T07:25:42.248Z,84.22
2023-08-30T07:28:09.931Z,84.10
2023-08-30T07:30:37.888Z,84.08
2023-08-30T07:33:06.086Z,84.08
2023-08-30T07:35:34.236Z,83.87
2023-08-30T07:38:01.246Z,84.05
2023-08-30T07:40:29.837Z,83.70
2023-08-30T07:42:59.836Z,83.82
2023-08-30T07:45:27.465Z,83.92
2023-08-30T07:47:54.623Z,83.40
2023-08-30T07:50:22.564Z,83.40
2023-08-30T07:52:49.475Z,82.94
2023-08-30T07:55:16.742Z,83.32
2023-08-30T07:57:45.044Z,82.79
2023-08-30T08:00:12.469Z,82.84
2023-08-30T08:02:46.234Z,82.53
2023-08-30T08:05:13.353Z,82.36
2023-08-30T08:07:42.084Z,82.34
2023-08-30T08:10:09.948Z,82.04
2023-08-30T08:12:37.059Z,81.88
2023-08-30T08:15:04.704Z,81.83
2023-08-30T08:17:31.659Z,81.54
2023-08-30T08:19:58.589Z,81.02
2023-08-30T08:22:28.525Z,80.98
2023-08-30T08:24:57.761Z,80.95
2023-08-30T08:27:26.552Z,80.75
2023-08-30T08:29:55.041Z,80.98
2023-08-30T08:32:22.508Z,80.67
2023-08-30T08:34:49.939Z,80.79
2023-08-30T08:37:17.581Z,80.33
2023-08-30T08:39:46.409Z,79.81
2023-08-30T08:42:13.587Z,79.77
2023-08-30T08:44:41.497Z,79.32
2023-08-30T08:47:08.775Z,79.13
2023-08-30T08:49:36.153Z,78.90
2023-08-30T08:52:12.189Z,78.42
2023-08-30T08:54:41.423Z,77.82
2023-08-30T08:57:09.258Z,77.88
2023-08-30T08:59:36.685Z,77.43
2023-08-30T09:02:04.083Z,76.73
2023-08-30T09:04:34.152Z,76.52
2023-08-30T09:07:01.685Z,76.34
2023-08-30T09:09:28.788Z,76.40
2023-08-30T09:11:56.038Z,75.94
2023-08-30T09:14:24.202Z,75.21
2023-08-30T09:17:04.449Z,74.88
2023-08-30T09:19:32.192Z,74.77
2023-08-30T09:22:00.370Z,74.96
2023-08-30T09:24:27.876Z,74.81
2023-08-30T09:26:57.675Z,74.43
2023-08-30T09:29:26.438Z,73.96
2023-08-30T09:31:56.902Z,73.63
2023-08-30T09:34:25.999Z,73.56
2023-08-30T09:36:55.207Z,73.02
2023-08-30T09:39:23.741Z,72.53
2023-08-30T09:41:52.058Z,72.62
2023-08-30T09:44:23.554Z,72.01
2023-08-30T09:46:55.184Z,71.11
2023-08-30T09:49:27.381Z,71.07
2023-08-30T09:51:56.868Z,70.85
2023-08-30T09:56:57.737Z,69.99
2023-08-30T09:59:25.827Z,69.76
2023-08-30T10:01:54.396Z,69.62
2023-08-30T10:04:23.334Z,69.10
2023-08-30T10:06:50.636Z,69.19
2023-08-30T10:09:20.297Z,69.10
2023-08-30T10:11:48.298Z,68.94
2023-08-30T10:14:15.842Z,69.04
2023-08-30T10:16:47.518Z,68.57
2023-08-30T10:19:26.320Z,68.50
2023-08-30T10:22:09.873Z,68.12
2023-08-30T10:25:10.597Z,67.26
2023-08-30T10:27:41.061Z,66.72
2023-08-30T10:30:09.227Z,66.59
2023-08-30T10:32:43.508Z,66.34
2023-08-30T10:35:15.740Z,66.06
2023-08-30T10:37:43.674Z,65.43
2023-08-30T10:40:11.496Z,64.78
2023-08-30T10:42:38.453Z,64.21
2023-08-30T10:47:39.868Z,63.53
2023-08-30T10:50:14.478Z,63.10
2023-08-30T10:52:42.115Z,62.52
2023-08-30T10:55:15.637Z,62.09
2023-08-30T10:57:45.576Z,62.60
2023-08-30T11:00:16.760Z,62.72
2023-08-30T11:02:49.753Z,62.68
2023-08-30T11:05:18.439Z,62.78
2023-08-30T11:07:46.823Z,62.52
2023-08-30T11:10:14.195Z,62.14
2023-08-30T11:12:42.530Z,60.97
2023-08-30T11:15:11.113Z,59.69
2023-08-30T11:17:38.662Z,59.99
2023-08-30T11:20:09.434Z,59.44
2023-08-30T11:22:41.432Z,59.74
2023-08-30T11:25:17.185Z,59.41
2023-08-30T11:27:44.450Z,59.06
2023-08-30T11:30:12.397Z,58.97
2023-08-30T11:32:41.442Z,58.51
2023-08-30T11:35:10.436Z,59.00
2023-08-30T11:37:37.848Z,59.35
2023-08-30T11:40:07.688Z,59.18
2023-08-30T11:42:35.337Z,59.07
2023-08-30T11:45:04.042Z,58.86
2023-08-30T11:47:31.558Z,58.29
2023-08-30T11:50:00.570Z,57.90
2023-08-30T11:52:28.541Z,57.76
2023-08-30T11:54:55.956Z,57.75
2023-08-30T11:57:22.914Z,57.71
2023-08-30T11:59:52.339Z,56.64
2023-08-30T12:02:19.979Z,55.50
2023-08-30T12:04:48.219Z,55.34
2023-08-30T12:07:25.636Z,54.73
2023-08-30T12:09:52.870Z,54.65
2023-08-30T12:12:20.732Z,54.34
2023-08-30T12:14:56.364Z,53.86
2023-08-30T12:17:23.430Z,54.09
2023-08-30T12:19:57.502Z,53.91
2023-08-30T12:22:40.661Z,54.17
2023-08-30T12:25:43.969Z,54.46
2023-08-30T12:28:11.578Z,54.01
2023-08-30T12:30:38.808Z,53.98
2023-08-30T12:33:05.995Z,54.44
2023-08-30T12:35:35.962Z,54.47
2023-08-30T12:38:02.972Z,54.98
2023-08-30T12:40:29.933Z,55.19
2023-08-30T12:42:56.837Z,55.06
2023-08-30T12:45:24.689Z,54.69
2023-08-30T12:47:51.623Z,54.47
2023-08-30T12:50:18.673Z,54.77
2023-08-30T12:52:46.842Z,54.63
2023-08-30T12:55:14.701Z,54.51
2023-08-30T12:57:41.707Z,54.24
2023-08-30T13:00:09.432Z,54.35
2023-08-30T13:02:36.562Z,54.37
2023-08-30T13:05:03.834Z,54.49
2023-08-30T13:07:35.076Z,54.91
2023-08-30T13:10:03.900Z,55.66
2023-08-30T13:12:30.945Z,56.32
2023-08-30T13:14:57.951Z,56.99
2023-08-30T13:17:24.950Z,57.18
2023-08-30T13:19:52.424Z,57.39
2023-08-30T13:22:20.985Z,58.21
2023-08-30T13:24:48.799Z,58.92
2023-08-30T13:27:17.157Z,59.39
2023-08-30T13:29:45.546Z,59.80
2023-08-30T13:32:12.812Z,60.25
2023-08-30T13:34:47.404Z,60.04
2023-08-30T13:37:14.718Z,60.41
2023-08-30T13:39:41.714Z,60.54
2023-08-30T13:42:09.083Z,60.63
2023-08-30T13:44:39.382Z,60.82
2023-08-30T13:47:06.466Z,60.75
2023-08-30T13:49:37.089Z,60.51
2023-08-30T13:52:04.373Z,59.91
2023-08-30T13:54:33.840Z,59.96
2023-08-30T13:57:00.854Z,59.46
2023-08-30T13:59:29.824Z,59.27
2023-08-30T14:01:58.635Z,58.89
2023-08-30T14:04:27.113Z,58.81
2023-08-30T14:06:54.902Z,58.63
2023-08-30T14:09:23.635Z,58.45
2023-08-30T14:11:52.355Z,57.74
2023-08-30T14:14:20.524Z,57.64
2023-08-30T14:16:49.290Z,57.19
2023-08-30T14:19:17.011Z,56.25
2023-08-30T14:21:46.748Z,55.97
2023-08-30T14:24:14.291Z,55.96
2023-08-30T14:26:42.773Z,55.04
2023-08-30T14:29:09.934Z,54.33
2023-08-30T14:31:37.838Z,53.02
2023-08-30T14:34:04.936Z,52.19
2023-08-30T14:36:31.925Z,51.41
2023-08-30T14:38:58.828Z,50.72
2023-08-30T14:41:26.141Z,49.97
2023-08-30T14:43:53.119Z,49.29
2023-08-30T14:46:24.334Z,48.76
2023-08-30T14:48:53.977Z,48.00
2023-08-30T14:51:23.022Z,48.08
2023-08-30T14:53:49.999Z,47.51
2023-08-30T14:56:19.216Z,46.75
2023-08-30T14:58:51.692Z,45.59
2023-08-30T15:01:18.719Z,45.46
2023-08-30T15:03:46.483Z,45.62
2023-08-30T15:06:13.422Z,46.24
2023-08-30T15:08:41.530Z,45.42
2023-08-30T15:11:09.820Z,45.72
2023-08-30T15:13:39.136Z,45.69
2023-08-30T15:16:06.622Z,45.85
2023-08-30T15:18:33.578Z,45.14
2023-08-30T15:21:01.230Z,44.03
2023-08-30T15:23:28.482Z,42.90
2023-08-30T15:25:55.480Z,41.74
2023-08-30T15:28:22.491Z,41.87
2023-08-30T15:30:52.181Z,41.29
2023-08-30T15:33:54.786Z,40.26
2023-08-30T15:36:06.999Z,40.17
2023-08-30T15:38:35.710Z,41.03
2023-08-30T15:41:07.850Z,41.34
2023-08-30T15:43:42.162Z,42.56
2023-08-30T15:46:12.540Z,43.11
2023-08-30T15:48:41.242Z,42.83
2023-08-30T15:51:20.568Z,43.43
2023-08-30T15:53:51.644Z,44.11
2023-08-30T15:56:18.664Z,44.51
2023-08-30T15:58:47.538Z,45.63
2023-08-30T16:01:18.298Z,45.88
2023-08-30T16:03:45.384Z,46.10
2023-08-30T16:06:12.427Z,45.76
2023-08-30T16:08:40.591Z,46.40
2023-08-30T16:11:07.544Z,47.19
2023-08-30T16:13:37.265Z,48.05
2023-08-30T16:16:04.809Z,48.29
2023-08-30T16:18:33.397Z,48.53
2023-08-30T16:21:00.325Z,49.13
2023-08-30T16:23:30.124Z,49.71
2023-08-30T16:26:00.481Z,50.51
2023-08-30T16:28:27.918Z,51.19
2023-08-30T16:31:06.326Z,51.68
2023-08-30T16:33:33.629Z,52.29
2023-08-30T16:36:04.041Z,52.62
2023-08-30T16:38:31.169Z,53.53
2023-08-30T16:41:03.734Z,54.20
2023-08-30T16:43:33.573Z,54.31
2023-08-30T16:46:00.509Z,53.67
2023-08-30T16:48:27.882Z,53.40
2023-08-30T16:50:55.096Z,53.07
2023-08-30T16:53:22.127Z,52.60
2023-08-30T16:55:49.671Z,51.92
2023-08-30T16:58:16.650Z,52.00
2023-08-30T17:00:45.144Z,52.04
2023-08-30T17:03:12.571Z,51.98
2023-08-30T17:05:41.351Z,51.94
2023-08-30T17:08:08.876Z,52.26
2023-08-30T17:10:38.466Z,52.83
2023-08-30T17:13:05.538Z,53.72
2023-08-30T17:15:33.056Z,54.49
2023-08-30T17:18:00.443Z,54.66
2023-08-30T17:20:27.370Z,55.50
2023-08-30T17:22:54.302Z,56.09
2023-08-30T17:25:21.370Z,56.50
2023-08-30T17:27:48.305Z,57.29
2023-08-30T17:30:17.610Z,57.64
2023-08-30T17:32:44.617Z,58.59
2023-08-30T17:35:11.805Z,59.56
2023-08-30T17:37:42.462Z,60.27
2023-08-30T17:40:10.858Z,60.47
2023-08-30T17:42:37.925Z,61.00
2023-08-30T17:45:19.850Z,61.48
2023-08-30T17:47:48.717Z,62.13
2023-08-30T17:50:16.788Z,62.53
2023-08-30T17:52:45.353Z,62.88
2023-08-30T17:55:17.140Z,63.04
2023-08-30T17:57:44.398Z,63.70
2023-08-30T18:00:15.562Z,63.62
2023-08-30T18:02:46.447Z,64.02
2023-08-30T18:05:14.915Z,64.46
2023-08-30T18:07:41.997Z,64.71
2023-08-30T18:10:09.254Z,65.06
2023-08-30T18:12:36.244Z,64.90
2023-08-30T18:15:04.165Z,65.50
2023-08-30T18:17:33.497Z,65.24
2023-08-30T18:20:01.527Z,65.58
2023-08-30T18:22:28.562Z,65.58
2023-08-30T18:24:56.333Z,66.00
2023-08-30T18:27:23.293Z,66.45
2023-08-30T18:29:51.250Z,66.68
2023-08-30T18:32:18.216Z,66.92
2023-08-30T18:34:45.481Z,66.83
2023-08-30T18:37:20.414Z,67.24
2023-08-30T18:39:47.673Z,67.62
2023-08-30T18:42:17.062Z,67.38
2023-08-30T18:44:45.391Z,67.86
2023-08-30T18:47:16.575Z,68.26
2023-08-30T18:49:45.141Z,68.09
2023-08-30T18:52:12.597Z,68.26
2023-08-30T18:54:44.950Z,68.95
2023-08-30T18:57:14.317Z,68.67
2023-08-30T18:59:43.953Z,68.93
2023-08-30T19:02:10.926Z,68.87
2023-08-30T19:04:37.965Z,69.54
2023-08-30T19:07:05.289Z,69.31
2023-08-30T19:09:37.308Z,69.47
2023-08-30T19:12:06.519Z,70.04
2023-08-30T19:14:33.724Z,70.13
2023-08-30T19:17:01.020Z,69.97
2023-08-30T19:19:29.267Z,69.96
2023-08-30T19:22:38.271Z,69.99
2023-08-30T19:25:06.695Z,70.38
2023-08-30T19:27:33.687Z,70.54
2023-08-30T19:30:00.987Z,70.32
2023-08-30T19:32:29.358Z,70.83
2023-08-30T19:34:56.305Z,70.60
2023-08-30T19:37:28.210Z,71.03
2023-08-30T19:39:55.454Z,70.84
2023-08-30T19:42:25.373Z,71.28
2023-08-30T19:44:59.818Z,71.35
2023-08-30T19:47:26.822Z,71.50
2023-08-30T19:49:54.186Z,71.35
2023-08-30T19:52:21.609Z,71.41
2023-08-30T19:54:49.423Z,71.65
2023-08-30T19:57:17.251Z,71.71
2023-08-30T19:59:45.870Z,71.32
2023-08-30T20:02:16.422Z,71.54
2023-08-30T20:04:44.220Z,71.62
2023-08-30T20:07:11.323Z,71.57
2023-08-30T20:09:39.076Z,72.08
2023-08-30T20:12:06.371Z,72.22
2023-08-30T20:14:36.009Z,72.02
2023-08-30T20:17:03.458Z,72.40
2023-08-30T20:19:31.209Z,72.38
2023-08-30T20:21:58.689Z,72.20
2023-08-30T20:24:27.215Z,72.30
2023-08-30T20:26:54.225Z,72.44
2023-08-30T20:29:24.681Z,72.87
2023-08-30T20:31:52.021Z,72.62
2023-08-30T20:34:21.221Z,73.02
2023-08-30T20:36:48.431Z,72.92
2023-08-30T20:39:16.599Z,72.94
2023-08-30T20:41:45.003Z,72.89
2023-08-30T20:44:12.023Z,72.97
2023-08-30T20:46:40.032Z,73.14
2023-08-30T20:49:08.433Z,73.29
2023-08-30T20:51:35.430Z,73.38
2023-08-30T20:54:02.424Z,72.97
2023-08-30T20:56:30.067Z,73.08
2023-08-30T20:59:02.601Z,73.09
2023-08-30T21:01:31.944Z,73.62
2023-08-30T21:03:59.093Z,73.47
2023-08-30T21:06:29.493Z,73.35
2023-08-30T21:09:16.432Z,73.41
2023-08-30T21:11:43.384Z,73.74
2023-08-30T21:14:15.356Z,73.71
2023-08-30T21:16:42.301Z,73.69
2023-08-30T21:19:09.325Z,73.90
2023-08-30T21:21:36.294Z,73.92
2023-08-30T21:24:05.374Z,73.85
2023-08-30T21:26:32.323Z,74.04
2023-08-30T21:28:59.258Z,73.83
2023-08-30T21:31:29.541Z,74.24
2023-08-30T21:33:59.450Z,74.00
2023-08-30T21:36:26.394Z,74.43
2023-08-30T21:38:57.985Z,74.44
2023-08-30T21:41:25.057Z,74.03
2023-08-30T21:43:53.744Z,74.11
2023-08-30T21:46:21.587Z,74.12
2023-08-30T21:48:49.647Z,74.14
2023-08-30T21:51:17.161Z,74.36
2023-08-30T21:53:46.333Z,74.36
2023-08-30T21:56:13.284Z,74.01
2023-08-30T21:58:40.233Z,74.12
2023-08-30T22:01:08.835Z,74.04
2023-08-30T22:03:36.383Z,74.42
2023-08-30T22:06:07.570Z,74.06
2023-08-30T22:08:34.619Z,74.48
2023-08-30T22:11:08.942Z,74.38
2023-08-30T22:13:37.252Z,74.59
2023-08-30T22:16:05.130Z,74.38
2023-08-30T22:18:33.101Z,74.67
2023-08-30T22:20:59.981Z,74.51
2023-08-30T22:23:26.930Z,74.65
2023-08-30T22:25:55.181Z,74.66
2023-08-30T22:28:24.231Z,74.45
2023-08-30T22:30:55.170Z,74.41
2023-08-30T22:33:23.360Z,74.54
2023-08-30T22:35:50.281Z,74.80
2023-08-30T22:38:17.623Z,74.76
2023-08-30T22:40:46.220Z,74.57
2023-08-30T22:43:13.467Z,74.73
2023-08-30T22:45:41.107Z,74.48
2023-08-30T22:48:08.174Z,74.56
2023-08-30T22:50:36.286Z,74.47
2023-08-30T22:53:03.268Z,74.41
2023-08-30T22:55:30.515Z,74.28
2023-08-30T22:57:57.467Z,74.31
2023-08-30T23:00:25.180Z,74.25
2023-08-30T23:02:52.168Z,74.16
2023-08-30T23:05:19.683Z,74.35
2023-08-30T23:07:47.990Z,74.23
2023-08-30T23:10:15.188Z,74.43
2023-08-30T23:12:42.466Z,74.47
2023-08-30T23:15:12.589Z,74.15
2023-08-30T23:17:46.774Z,74.40
2023-08-30T23:20:15.980Z,74.76
2023-08-30T23:22:43.306Z,74.36
2023-08-30T23:25:12.232Z,74.95
2023-08-30T23:27:39.490Z,74.61
2023-08-30T23:30:09.384Z,74.60
2023-08-30T23:32:37.175Z,74.82
2023-08-30T23:35:06.314Z,75.20
2023-08-30T23:37:33.725Z,75.04
2023-08-30T23:40:01.858Z,75.00
2023-08-30T23:42:29.019Z,75.45
2023-08-30T23:44:59.478Z,75.42
2023-08-30T23:47:28.556Z,75.18
2023-08-30T23:53:02.305Z,75.11
2023-08-30T23:55:30.833Z,75.40
2023-08-30T23:58:00.260Z,75.72
